Aérodrome :
LOGIN :

S'inscrire | Disclaimer

   EN    FR    IT 

 










Légende :    VFR   VFR Marginal   IFR   IFR Intensif   IFR Très Intensif
Visi : 
Plafond : 
>= 8 km
>= 3000ft
5 à 8 km
1000 à 3000 ft
1500m à 5 km
500 à 1000 ft
800 à 1500m
200 à 500 ft
< 800m
< 200 ft
Symboles :   Orages  Brouillard  Fortes neiges  Fortes précipitations  Vent > 20 kt
SIGMETs :   Divers  Orages  Givrage  Turbulence  Onde Orograph.  Cendres Volcan.







- Altitude de l'aérodrome : 433 ft
- Code IATA : CCF
- Voir les cartes d'approche


LFMK - Carcassonne

DERNIER METAR :
  • 210430Z AUTO 29022KT 9999 -DZ OVC012 13/11 Q1018 TEMPO RA OVC010 FEW025TCU BECMG 29025G35KT

METARs EXPIRÉS :
  • 210400Z AUTO 28021G31KT 9999 -DZ OVC014 13/11 Q1018 TEMPO RA OVC010 FEW025TCU
  • 210330Z AUTO 29022G33KT 9999 -DZ OVC013 13/11 Q1018 TEMPO RA OVC010 FEW025TCU
  • 210300Z AUTO 28024G35KT 9999 OVC014 13/11 Q1017 TEMPO RA OVC010 FEW025TCU
  • 210230Z AUTO 29022G33KT 9999 -DZ OVC013 13/11 Q1017 TEMPO RA OVC010 FEW025TCU
  • 210200Z AUTO 29023G35KT 9999 -RA OVC012 13/11 Q1017

TAF TAF LFMK
Valide du 21 à 03h jusqu'au 22 à 03h UTC


210200Z 2103/2203 29025G35KT 9999 OVC035
TEMPO 2103/2121 RA OVC010 FEW025TCU
Pas de NOTAMs connus pour ce terrain.
1 SIGMET publié pour la FIR Bordeaux (LFBB) :
 
Onde orographique forte
LFBB SIGMET 1 VALID 210300/210700 LFPW
LFBB BORDEAUX FIR/UIR SEV MTW FCST WI N4245 E00230 - N4215 E00230 - N4245 E00000 - N4300 E00000 - N4245 E00230 SFC/FL350 STNR NC=



MET'MAP, la Météo Aéronautique d'un coup d'oeil ! - Copyright ORBIFLY Décembre 2007 - Disclaimer

ORBIFLY MET'MAP TEAM :

Programmation & Développement : Alexandra Zaïnal
Conception & Développement : Baudouin d'Aumeries
Co-Programmation & Développement : Marc-Olivier Méhu
Soutien technique & logistique : Manuel Goepfert

Contact : metmap@orbifly.com




SOURCES & CREDITS :

   NOAA